Dagsboro, Delaware
Current Conditions -  °F | °C
As of 1:54 PM on Thursday 30 Oct 2014 (Local Time) from KGED Reporting Station
Clear Clear  
Wind Chill: 60°   Ceiling: Unl
Heat Index: 60°   Visibility: 10mi
Dew Point: 39°   Wind: 9mph
Humidity: 46%   Direction: 290°WNW
Pressure: 30.01"   Gusts: NA
Location:  38.55°N, 75.25°W
Report Text: KGED 301754Z AUTO 29008KT 10SM CLR 16/04 A3001 RMK AO2 SLP161 T01560039 10161 20078 58013 $
Loading
Personal Weather Stations






























Interactive Weather Map
Tropical Storm Tracking
New forecast layout! Learn more

10-Day Weather Forecast

Advertisements
Track Severe Weather on mobile